Terminal Aerodrome Forecast
Issued by NWS

Home | Current Version | Previous Version | Text Only | Print | Product List | Glossary On
Versions: 1 2 3 4 5 6 7 8 9 10 11 12 13 14 15 16 17
000
FTUS45 KFGZ 161100
TAFPRC
TAF
KPRC 161139Z 1612/1712 20005KT P6SM FEW080 FEW200
     FM161800 13008KT P6SM SCT070 SCT200
      TEMPO 1619/1623 VRB15G30KT 5SM TSRA BKN060CB
     FM170000 16006KT P6SM SCT040 BKN110 PROB30 1700/1706 4SM -TSRA
      BKN040CB
     FM170600 18004KT P6SM BKN040 PROB30 1706/1712 4SM -TSRA
      BKN035CB=

USA.gov is the U.S. government's official web portal to all federal, state and local government web resources and services.